createdAt,value
2023-01-30T00:01:28.293Z,6.90
2023-01-30T00:03:56.048Z,6.80
2023-01-30T00:06:23.479Z,6.90
2023-01-30T00:08:51.191Z,7.90
2023-01-30T00:11:19.745Z,6.90
2023-01-30T00:13:49.504Z,7.00
2023-01-30T00:16:17.957Z,7.00
2023-01-30T00:18:45.343Z,6.90
2023-01-30T00:21:14.800Z,7.10
2023-01-30T00:23:42.817Z,7.10
2023-01-30T00:26:10.933Z,7.10
2023-01-30T00:28:39.818Z,7.40
2023-01-30T00:31:08.351Z,7.10
2023-01-30T00:33:37.869Z,8.40
2023-01-30T00:36:05.528Z,7.20
2023-01-30T00:38:33.114Z,7.00
2023-01-30T00:41:00.425Z,7.10
2023-01-30T00:43:46.711Z,7.20
2023-01-30T00:46:41.712Z,7.00
2023-01-30T00:49:08.958Z,7.30
2023-01-30T00:51:36.254Z,8.40
2023-01-30T00:54:03.945Z,7.20
2023-01-30T00:56:32.110Z,7.10
2023-01-30T00:58:59.428Z,7.20
2023-01-30T01:01:26.776Z,7.30
2023-01-30T01:03:54.026Z,8.60
2023-01-30T01:06:21.405Z,7.30
2023-01-30T01:08:48.720Z,7.40
2023-01-30T01:11:24.227Z,7.50
2023-01-30T01:13:57.354Z,7.70
2023-01-30T01:16:25.596Z,7.40
2023-01-30T01:18:53.726Z,7.40
2023-01-30T01:21:22.046Z,7.70
2023-01-30T01:23:54.097Z,7.30
2023-01-30T01:26:21.881Z,7.40
2023-01-30T01:28:49.910Z,7.20
2023-01-30T01:31:17.754Z,7.50
2023-01-30T01:33:45.229Z,7.50
2023-01-30T01:36:19.998Z,7.50
2023-01-30T01:38:56.993Z,7.70
2023-01-30T01:41:24.402Z,7.50
2023-01-30T01:44:07.464Z,7.40
2023-01-30T01:46:50.039Z,7.50
2023-01-30T01:49:20.289Z,7.50
2023-01-30T01:52:13.301Z,7.70
2023-01-30T01:54:40.575Z,7.70
2023-01-30T01:57:15.655Z,7.30
2023-01-30T01:59:49.754Z,7.60
2023-01-30T02:02:17.480Z,7.40
2023-01-30T02:05:02.270Z,7.40
2023-01-30T02:07:35.346Z,7.80
2023-01-30T02:10:04.594Z,7.40
2023-01-30T02:12:32.298Z,7.40
2023-01-30T02:15:00.705Z,7.70
2023-01-30T02:17:28.151Z,7.60
2023-01-30T02:20:06.576Z,7.50
2023-01-30T02:22:37.803Z,7.50
2023-01-30T02:25:08.302Z,7.50
2023-01-30T02:27:59.048Z,7.30
2023-01-30T02:31:03.973Z,7.40
2023-01-30T02:34:07.856Z,7.30
2023-01-30T02:37:06.249Z,8.90
2023-01-30T02:39:33.482Z,7.40
2023-01-30T02:42:45.058Z,7.40
2023-01-30T02:45:21.174Z,7.40
2023-01-30T02:47:53.499Z,7.50
2023-01-30T02:50:26.667Z,7.60
2023-01-30T02:52:54.997Z,7.90
2023-01-30T02:55:25.519Z,7.70
2023-01-30T02:57:53.026Z,8.00
2023-01-30T03:00:33.053Z,8.20
2023-01-30T03:03:22.579Z,7.80
2023-01-30T03:06:14.983Z,8.00
2023-01-30T03:08:51.432Z,7.90
2023-01-30T03:11:24.402Z,8.00
2023-01-30T03:14:02.593Z,8.00
2023-01-30T03:16:39.597Z,7.90
2023-01-30T03:19:12.067Z,8.00
2023-01-30T03:21:44.771Z,8.00
2023-01-30T03:24:14.021Z,7.90
2023-01-30T03:26:56.126Z,7.90
2023-01-30T03:29:23.697Z,7.90
2023-01-30T03:31:51.773Z,8.10
2023-01-30T03:36:47.864Z,7.90
2023-01-30T03:39:16.491Z,8.00
2023-01-30T03:41:44.508Z,7.80
2023-01-30T03:44:11.893Z,7.90
2023-01-30T03:46:42.340Z,7.80
2023-01-30T03:49:09.699Z,7.80
2023-01-30T03:51:37.283Z,9.00
2023-01-30T03:54:04.675Z,7.80
2023-01-30T03:56:32.563Z,7.80
2023-01-30T03:59:00.263Z,7.80
2023-01-30T04:01:36.348Z,8.60
2023-01-30T04:04:04.090Z,8.10
2023-01-30T04:06:31.436Z,7.80
2023-01-30T04:08:59.113Z,8.90
2023-01-30T04:11:45.631Z,8.60
2023-01-30T04:17:04.061Z,7.50
2023-01-30T04:19:54.457Z,7.60
2023-01-30T04:22:22.169Z,7.70
2023-01-30T04:24:49.587Z,7.70
2023-01-30T04:27:17.153Z,7.80
2023-01-30T04:30:03.336Z,7.80
2023-01-30T04:32:30.776Z,7.80
2023-01-30T04:34:59.999Z,8.20
2023-01-30T04:37:27.848Z,7.70
2023-01-30T04:39:55.266Z,8.80
2023-01-30T04:42:26.866Z,7.80
2023-01-30T04:45:12.749Z,8.20
2023-01-30T04:47:40.257Z,7.70
2023-01-30T04:50:08.397Z,7.70
2023-01-30T04:52:38.966Z,7.80
2023-01-30T04:55:09.291Z,7.80
2023-01-30T05:00:05.234Z,7.80
2023-01-30T05:02:36.016Z,7.70
2023-01-30T05:05:03.394Z,8.80
2023-01-30T05:07:30.707Z,7.70
2023-01-30T05:12:25.636Z,7.80
2023-01-30T05:14:53.566Z,8.10
2023-01-30T05:19:49.804Z,7.80
2023-01-30T05:22:17.179Z,8.00
2023-01-30T05:24:44.527Z,7.80
2023-01-30T05:27:11.906Z,8.10
2023-01-30T05:29:39.388Z,7.70
2023-01-30T05:32:06.897Z,8.20
2023-01-30T05:34:34.226Z,8.00
2023-01-30T05:37:01.616Z,7.90
2023-01-30T05:39:28.990Z,8.00
2023-01-30T05:41:56.235Z,7.90
2023-01-30T05:44:23.621Z,8.00
2023-01-30T05:49:18.965Z,8.10
2023-01-30T05:51:46.348Z,8.10
2023-01-30T05:54:13.848Z,8.10
2023-01-30T05:56:41.184Z,8.00
2023-01-30T05:59:11.894Z,8.60
2023-01-30T06:01:39.233Z,8.10
2023-01-30T06:04:06.909Z,9.10
2023-01-30T06:06:34.314Z,8.20
2023-01-30T06:09:02.092Z,8.10
2023-01-30T06:11:30.160Z,8.10
2023-01-30T06:13:57.465Z,9.40
2023-01-30T06:16:25.077Z,8.50
2023-01-30T06:18:52.481Z,8.30
2023-01-30T06:21:19.753Z,8.40
2023-01-30T06:26:14.972Z,8.30
2023-01-30T06:28:42.826Z,8.80
2023-01-30T06:31:10.594Z,8.40
2023-01-30T06:33:38.008Z,8.70
2023-01-30T06:36:05.724Z,8.50
2023-01-30T06:38:33.047Z,8.40
2023-01-30T06:41:00.621Z,8.30
2023-01-30T06:43:29.068Z,8.30
2023-01-30T06:45:59.367Z,8.30
2023-01-30T06:48:26.793Z,9.00
2023-01-30T06:53:25.272Z,8.20
2023-01-30T06:55:52.546Z,8.00
2023-01-30T06:58:19.897Z,7.90
2023-01-30T07:00:47.329Z,7.80
2023-01-30T07:03:17.118Z,7.90
2023-01-30T07:05:46.282Z,7.80
2023-01-30T07:08:14.966Z,8.00
2023-01-30T07:10:43.545Z,7.70
2023-01-30T07:13:11.662Z,7.80
2023-01-30T07:15:39.187Z,8.00
2023-01-30T07:18:06.674Z,8.10
2023-01-30T07:20:34.194Z,7.70
2023-01-30T07:25:29.599Z,7.60
2023-01-30T07:28:01.862Z,8.20
2023-01-30T07:30:32.280Z,7.50
2023-01-30T07:33:00.352Z,7.40
2023-01-30T07:35:31.583Z,7.60
2023-01-30T07:37:59.965Z,7.40
2023-01-30T07:40:29.145Z,7.20
2023-01-30T07:43:03.831Z,7.30
2023-01-30T07:45:45.434Z,7.30
2023-01-30T07:48:18.273Z,7.20
2023-01-30T07:50:46.267Z,7.30
2023-01-30T07:53:15.845Z,7.30
2023-01-30T07:55:43.626Z,8.60
2023-01-30T07:58:14.560Z,7.60
2023-01-30T08:00:42.068Z,7.20
2023-01-30T08:03:17.033Z,7.20
2023-01-30T08:05:47.057Z,7.10
2023-01-30T08:10:43.016Z,7.60
2023-01-30T08:15:38.259Z,7.50
2023-01-30T08:18:07.343Z,7.50
2023-01-30T08:20:35.173Z,7.50
2023-01-30T08:25:31.369Z,7.60
2023-01-30T08:28:00.312Z,7.50
2023-01-30T08:30:29.575Z,8.20
2023-01-30T08:33:00.490Z,7.50
2023-01-30T08:35:28.059Z,7.70
2023-01-30T08:37:55.416Z,7.50
2023-01-30T08:40:22.781Z,7.60
2023-01-30T08:42:50.059Z,9.60
2023-01-30T08:45:19.504Z,7.40
2023-01-30T08:47:46.742Z,7.50
2023-01-30T08:50:14.022Z,7.60
2023-01-30T08:52:41.318Z,7.50
2023-01-30T08:55:09.478Z,7.40
2023-01-30T08:57:38.537Z,7.60
2023-01-30T09:00:07.599Z,7.50
2023-01-30T09:05:03.160Z,7.50
2023-01-30T09:07:30.543Z,7.40
2023-01-30T09:09:57.929Z,7.70
2023-01-30T09:12:27.040Z,7.50
2023-01-30T09:14:55.683Z,7.40
2023-01-30T09:17:23.145Z,7.60
2023-01-30T09:19:50.400Z,7.60
2023-01-30T09:22:17.816Z,7.60
2023-01-30T09:24:45.261Z,7.60
2023-01-30T09:27:12.524Z,7.60
2023-01-30T09:29:39.900Z,7.70
2023-01-30T09:37:04.775Z,7.70
2023-01-30T09:39:32.459Z,9.10
2023-01-30T09:42:20.052Z,8.40
2023-01-30T09:45:08.906Z,7.80
2023-01-30T09:48:08.906Z,7.70
2023-01-30T09:51:00.306Z,7.80
2023-01-30T09:54:05.991Z,7.70
2023-01-30T09:56:34.134Z,8.00
2023-01-30T09:59:03.618Z,8.90
2023-01-30T10:02:09.562Z,9.20
2023-01-30T10:04:59.059Z,7.70
2023-01-30T10:07:37.867Z,8.10
2023-01-30T10:10:10.223Z,7.80
2023-01-30T10:13:05.148Z,7.90
2023-01-30T10:15:51.736Z,8.00
2023-01-30T10:18:48.603Z,7.90
2023-01-30T10:21:18.641Z,8.00
2023-01-30T10:24:18.495Z,8.60
2023-01-30T10:26:47.056Z,7.90
2023-01-30T10:29:21.962Z,8.00
2023-01-30T10:31:56.016Z,8.00
2023-01-30T10:34:34.639Z,8.00
2023-01-30T10:37:18.148Z,8.30
2023-01-30T10:39:55.394Z,8.10
2023-01-30T10:42:34.827Z,8.10
2023-01-30T10:45:17.562Z,8.10
2023-01-30T10:48:04.861Z,8.10
2023-01-30T10:51:02.826Z,8.40
2023-01-30T10:54:13.451Z,8.50
2023-01-30T10:56:54.485Z,8.80
2023-01-30T10:59:32.523Z,8.40
2023-01-30T11:02:23.870Z,8.60
2023-01-30T11:04:59.890Z,9.80
2023-01-30T11:07:31.485Z,8.70
2023-01-30T11:10:00.101Z,9.00
2023-01-30T11:12:27.875Z,9.30
2023-01-30T11:17:49.555Z,8.90
2023-01-30T11:20:20.370Z,9.40
2023-01-30T11:23:00.502Z,9.20
2023-01-30T11:25:28.078Z,9.50
2023-01-30T11:28:01.225Z,9.90
2023-01-30T11:30:34.098Z,10.00
2023-01-30T11:33:15.023Z,10.10
2023-01-30T11:35:55.765Z,10.40
2023-01-30T11:38:26.594Z,10.60
2023-01-30T11:41:12.999Z,11.70
2023-01-30T11:43:43.615Z,10.60
2023-01-30T11:46:16.276Z,10.70
2023-01-30T11:49:11.147Z,10.80
2023-01-30T11:51:45.087Z,10.70
2023-01-30T11:54:20.109Z,10.70
2023-01-30T11:56:53.543Z,10.40
2023-01-30T11:59:30.072Z,10.90
2023-01-30T12:02:16.895Z,10.60
2023-01-30T12:04:46.925Z,10.70
2023-01-30T12:07:21.276Z,10.70
2023-01-30T12:09:50.419Z,10.70
2023-01-30T12:12:33.372Z,10.40
2023-01-30T12:15:39.670Z,10.60
2023-01-30T12:18:30.219Z,10.50
2023-01-30T12:21:10.065Z,10.80
2023-01-30T12:23:44.971Z,10.80
2023-01-30T12:26:28.833Z,10.70
2023-01-30T12:29:28.088Z,10.50
2023-01-30T12:32:04.414Z,10.20
2023-01-30T12:34:34.602Z,10.40
2023-01-30T12:37:54.169Z,10.90
2023-01-30T12:40:46.763Z,11.10
2023-01-30T12:43:20.931Z,11.40
2023-01-30T12:45:59.999Z,11.00
2023-01-30T12:52:07.886Z,10.60
2023-01-30T12:55:12.801Z,10.50
2023-01-30T12:57:53.334Z,10.30
2023-01-30T13:00:53.652Z,10.20
2023-01-30T13:03:53.383Z,10.20
2023-01-30T13:06:34.548Z,10.80
2023-01-30T13:09:37.741Z,11.30
2023-01-30T13:12:40.827Z,11.50
2023-01-30T13:15:41.250Z,11.50
2023-01-30T13:18:32.627Z,11.70
2023-01-30T13:21:23.454Z,11.60
2023-01-30T13:24:19.519Z,11.90
2023-01-30T13:26:49.147Z,12.40
2023-01-30T13:29:39.564Z,12.70
2023-01-30T13:33:01.451Z,13.30
2023-01-30T13:35:35.258Z,13.30
2023-01-30T13:38:07.619Z,13.30
2023-01-30T13:40:42.352Z,13.50
2023-01-30T13:43:16.292Z,13.10
2023-01-30T13:45:50.383Z,12.80
2023-01-30T13:48:43.824Z,12.80
2023-01-30T13:51:17.755Z,12.70
2023-01-30T13:58:30.848Z,12.70
2023-01-30T14:04:33.585Z,11.90
2023-01-30T14:07:28.868Z,11.80
2023-01-30T14:10:08.941Z,11.70
2023-01-30T14:12:52.070Z,11.70
2023-01-30T14:16:21.402Z,11.60
2023-01-30T14:18:56.388Z,12.20
2023-01-30T14:21:27.783Z,12.60
2023-01-30T14:24:10.560Z,13.00
2023-01-30T14:27:00.050Z,14.70
2023-01-30T14:29:42.986Z,13.70
2023-01-30T14:32:14.120Z,13.70
2023-01-30T14:35:00.923Z,14.00
2023-01-30T14:37:43.483Z,14.10
2023-01-30T14:43:26.846Z,14.20
2023-01-30T14:45:58.379Z,13.80
2023-01-30T14:48:37.712Z,13.80
2023-01-30T14:51:32.733Z,14.00
2023-01-30T14:54:12.532Z,14.50
2023-01-30T14:56:59.686Z,14.50
2023-01-30T14:59:59.367Z,14.60
2023-01-30T15:02:47.966Z,14.50
2023-01-30T15:05:49.429Z,14.60
2023-01-30T15:08:43.843Z,14.20
2023-01-30T15:11:27.070Z,14.00
2023-01-30T15:14:38.798Z,13.80
2023-01-30T15:17:42.367Z,13.90
2023-01-30T15:20:34.922Z,13.90
2023-01-30T15:23:23.762Z,13.80
2023-01-30T15:26:10.314Z,14.00
2023-01-30T15:28:55.785Z,14.00
2023-01-30T15:34:22.317Z,13.80
2023-01-30T15:36:55.569Z,13.70
2023-01-30T15:39:35.307Z,13.90
2023-01-30T15:45:14.175Z,14.20
2023-01-30T15:48:24.025Z,14.40
2023-01-30T15:51:20.410Z,14.30
2023-01-30T15:53:58.674Z,13.80
2023-01-30T15:56:40.835Z,14.00
2023-01-30T15:59:21.106Z,13.80
2023-01-30T16:02:16.011Z,13.90
2023-01-30T16:04:46.193Z,13.50
2023-01-30T16:07:28.124Z,13.20
2023-01-30T16:10:08.281Z,12.60
2023-01-30T16:12:41.085Z,12.00
2023-01-30T16:15:27.103Z,11.40
2023-01-30T16:18:13.265Z,10.90
2023-01-30T16:21:11.768Z,10.90
2023-01-30T16:23:51.120Z,10.50
2023-01-30T16:26:21.738Z,10.40
2023-01-30T16:28:51.177Z,10.20
2023-01-30T16:31:19.106Z,10.00
2023-01-30T16:33:53.112Z,11.10
2023-01-30T16:36:20.429Z,9.80
2023-01-30T16:38:49.348Z,9.80
2023-01-30T16:41:42.816Z,9.80
2023-01-30T16:44:21.759Z,10.50
2023-01-30T16:46:50.720Z,9.40
2023-01-30T16:49:36.752Z,9.20
2023-01-30T16:52:24.632Z,9.10
2023-01-30T16:54:56.683Z,9.40
2023-01-30T16:57:40.212Z,9.20
2023-01-30T17:00:25.355Z,9.20
2023-01-30T17:03:01.737Z,8.70
2023-01-30T17:05:36.739Z,10.20
2023-01-30T17:08:04.359Z,9.20
2023-01-30T17:10:37.815Z,8.80
2023-01-30T17:13:27.536Z,8.90
2023-01-30T17:18:23.228Z,8.70
2023-01-30T17:20:51.367Z,8.70
2023-01-30T17:23:21.624Z,9.80
2023-01-30T17:25:49.359Z,8.50
2023-01-30T17:28:21.288Z,8.30
2023-01-30T17:30:50.325Z,8.50
2023-01-30T17:35:45.963Z,8.10
2023-01-30T17:38:13.366Z,8.40
2023-01-30T17:40:42.933Z,8.40
2023-01-30T17:43:12.121Z,8.30
2023-01-30T17:45:39.619Z,8.10
2023-01-30T17:48:07.499Z,8.20
2023-01-30T17:50:36.960Z,8.10
2023-01-30T17:55:34.292Z,8.00
2023-01-30T17:58:01.666Z,8.00
2023-01-30T18:00:29.313Z,7.90
2023-01-30T18:02:56.598Z,8.00
2023-01-30T18:05:24.343Z,8.10
2023-01-30T18:07:51.638Z,7.90
2023-01-30T18:10:20.310Z,8.00
2023-01-30T18:12:47.881Z,7.80
2023-01-30T18:17:48.793Z,7.80
2023-01-30T18:20:19.639Z,7.80
2023-01-30T18:22:47.410Z,7.70
2023-01-30T18:25:15.596Z,8.10
2023-01-30T18:27:44.533Z,7.70
2023-01-30T18:30:15.874Z,7.70
2023-01-30T18:32:52.437Z,7.60
2023-01-30T18:35:22.094Z,7.70
2023-01-30T18:37:50.017Z,7.50
2023-01-30T18:40:18.832Z,8.10
2023-01-30T18:47:42.066Z,7.30
2023-01-30T18:50:09.977Z,8.30
2023-01-30T18:52:37.428Z,7.50
2023-01-30T18:55:05.078Z,7.80
2023-01-30T18:57:32.345Z,7.40
2023-01-30T18:59:59.721Z,7.80
2023-01-30T19:02:27.136Z,7.70
2023-01-30T19:07:22.297Z,7.40
2023-01-30T19:09:49.746Z,7.50
2023-01-30T19:15:03.612Z,7.30
2023-01-30T19:20:02.051Z,7.20
2023-01-30T19:22:29.485Z,7.00
2023-01-30T19:24:56.781Z,8.20
2023-01-30T19:29:53.489Z,7.10
2023-01-30T19:32:20.877Z,7.30
2023-01-30T19:34:49.945Z,7.60
2023-01-30T19:37:18.122Z,7.20
2023-01-30T19:39:45.437Z,7.10
2023-01-30T19:42:12.967Z,7.20
2023-01-30T19:44:40.995Z,7.00
2023-01-30T19:49:36.640Z,7.00
2023-01-30T19:52:04.258Z,6.90
2023-01-30T19:54:31.562Z,6.80
2023-01-30T19:56:59.989Z,6.80
2023-01-30T19:59:30.126Z,6.80
2023-01-30T20:01:57.690Z,7.00
2023-01-30T20:04:25.165Z,6.80
2023-01-30T20:06:52.659Z,6.70
2023-01-30T20:14:15.599Z,6.70
2023-01-30T20:16:42.881Z,6.40
2023-01-30T20:19:16.265Z,6.70
2023-01-30T20:21:44.389Z,6.50
2023-01-30T20:24:15.861Z,6.60
2023-01-30T20:26:45.307Z,6.50
2023-01-30T20:29:16.973Z,6.80
2023-01-30T20:31:44.610Z,8.00
2023-01-30T20:34:13.709Z,6.50
2023-01-30T20:36:41.312Z,6.40
2023-01-30T20:39:08.834Z,6.50
2023-01-30T20:41:37.737Z,5.90
2023-01-30T20:44:07.929Z,6.40
2023-01-30T20:46:42.479Z,6.20
2023-01-30T20:49:18.530Z,6.20
2023-01-30T20:51:47.108Z,6.10
2023-01-30T20:54:15.427Z,6.00
2023-01-30T20:56:52.407Z,6.00
2023-01-30T20:59:27.176Z,6.10
2023-01-30T21:04:24.419Z,5.80
2023-01-30T21:06:51.984Z,5.80
2023-01-30T21:09:22.054Z,6.40
2023-01-30T21:11:53.149Z,6.00
2023-01-30T21:14:20.678Z,5.90
2023-01-30T21:16:48.728Z,6.00
2023-01-30T21:19:17.582Z,5.90
2023-01-30T21:21:50.773Z,5.80
2023-01-30T21:24:21.617Z,6.30
2023-01-30T21:29:20.151Z,5.90
2023-01-30T21:31:47.724Z,6.00
2023-01-30T21:34:15.447Z,5.70
2023-01-30T21:36:42.968Z,6.20
2023-01-30T21:39:31.727Z,5.10
2023-01-30T21:42:17.649Z,5.80
2023-01-30T21:47:12.594Z,5.60
2023-01-30T21:49:41.807Z,5.60
2023-01-30T21:57:05.119Z,5.60
2023-01-30T21:59:33.234Z,5.50
2023-01-30T22:02:00.565Z,6.00
2023-01-30T22:04:27.845Z,5.60
2023-01-30T22:06:55.623Z,5.40
2023-01-30T22:09:23.235Z,5.50
2023-01-30T22:11:51.205Z,5.50
2023-01-30T22:14:18.690Z,5.40
2023-01-30T22:16:46.142Z,8.30
2023-01-30T22:19:14.351Z,5.50
2023-01-30T22:21:41.990Z,5.90
2023-01-30T22:26:39.618Z,5.20
2023-01-30T22:29:07.350Z,5.70
2023-01-30T22:31:37.383Z,5.40
2023-01-30T22:34:05.039Z,5.40
2023-01-30T22:36:34.847Z,5.40
2023-01-30T22:39:02.700Z,5.40
2023-01-30T22:41:34.768Z,5.10
2023-01-30T22:44:04.694Z,5.40
2023-01-30T22:46:34.551Z,5.20
2023-01-30T22:49:03.773Z,6.10
2023-01-30T22:51:36.963Z,5.60
2023-01-30T22:54:07.548Z,5.10
2023-01-30T22:56:41.631Z,4.90
2023-01-30T22:59:09.577Z,5.40
2023-01-30T23:01:39.618Z,5.10
2023-01-30T23:04:14.355Z,5.20
2023-01-30T23:09:11.616Z,5.20
2023-01-30T23:12:13.016Z,5.10
2023-01-30T23:14:42.226Z,5.60
2023-01-30T23:17:28.669Z,5.20
2023-01-30T23:19:56.758Z,5.30
2023-01-30T23:27:20.730Z,5.20
2023-01-30T23:29:48.169Z,5.30
2023-01-30T23:34:47.667Z,5.20
2023-01-30T23:37:15.381Z,5.10
2023-01-30T23:39:42.720Z,5.40
2023-01-30T23:42:10.062Z,5.60
2023-01-30T23:44:37.623Z,5.10
2023-01-30T23:47:04.990Z,5.50
2023-01-30T23:49:32.371Z,5.00
2023-01-30T23:54:27.504Z,5.10
2023-01-30T23:56:55.965Z,5.00
2023-01-30T23:59:23.229Z,5.00
